Time;durP1;ratioP1;P1;durP2;ratioP2;P2;SDS_P1;SDS_P2;PMS_P1;PMS_P2;Temp;Humidity;BMP_temperature;BMP_pressure;BME280_temperature;BME280_humidity;BME280_pressure;Samples;Min_cycle;Max_cycle;Signal;HPM_P1;HPM_P2
2022/05/05 00:00:07;;;;;;;5.10;4.60;;;11.40;89.50;;;;;;4998037;28;20266;-67
2022/05/05 00:02:35;;;;;;;5.70;5.20;;;11.40;89.50;;;;;;5030603;28;20211;-67
2022/05/05 00:05:01;;;;;;;5.10;4.33;;;11.40;89.40;;;;;;5014170;28;20270;-67
2022/05/05 00:07:27;;;;;;;5.23;4.73;;;11.30;89.40;;;;;;4997555;28;20190;-67
2022/05/05 00:09:53;;;;;;;5.70;4.80;;;11.30;89.40;;;;;;5014148;28;20172;-67
2022/05/05 00:15:04;;;;;;;5.60;5.00;;;11.20;89.40;;;;;;5034054;28;20262;-67
2022/05/05 00:17:32;;;;;;;6.63;4.63;;;11.10;89.50;;;;;;5033568;28;20175;-66
2022/05/05 00:19:58;;;;;;;7.10;4.57;;;11.10;89.50;;;;;;5013586;28;20186;-65
2022/05/05 00:22:23;;;;;;;6.67;4.90;;;11.10;89.50;;;;;;5046909;28;20180;-65
2022/05/05 00:24:49;;;;;;;7.40;4.90;;;11.00;89.60;;;;;;5046333;28;20202;-65
2022/05/05 00:27:15;;;;;;;4.67;4.27;;;11.00;89.60;;;;;;5008520;28;20187;-66
2022/05/05 00:29:40;;;;;;;6.57;4.60;;;11.00;89.70;;;;;;5017133;28;20211;-65
2022/05/05 00:32:06;;;;;;;5.10;4.60;;;11.00;89.70;;;;;;5016939;28;20187;-65
2022/05/05 00:34:32;;;;;;;4.47;3.83;;;10.90;89.70;;;;;;5016831;28;20194;-67
2022/05/05 00:36:58;;;;;;;6.37;4.47;;;10.90;89.50;;;;;;5013406;28;20299;-67
2022/05/05 00:39:24;;;;;;;5.27;4.77;;;10.80;89.70;;;;;;5013421;28;20243;-67
2022/05/05 00:41:51;;;;;;;6.13;5.13;;;10.80;89.70;;;;;;5013739;28;20211;-67
2022/05/05 00:44:17;;;;;;;7.20;4.50;;;10.80;89.80;;;;;;5015972;28;20183;-67
2022/05/05 00:46:50;;;;;;;5.40;4.90;;;10.70;89.80;;;;;;5016547;28;20187;-67
2022/05/05 00:49:16;;;;;;;5.23;4.73;;;10.70;89.80;;;;;;5017151;28;20175;-67
2022/05/05 00:51:42;;;;;;;5.77;5.17;;;10.70;89.80;;;;;;5015821;28;20190;-66
2022/05/05 00:54:08;;;;;;;5.73;5.07;;;10.60;89.80;;;;;;5050202;28;20191;-66
2022/05/05 00:56:35;;;;;;;7.83;4.50;;;10.60;89.80;;;;;;5047214;28;20211;-66
2022/05/05 00:59:02;;;;;;;5.30;4.90;;;10.50;89.80;;;;;;5017010;28;20257;-66
2022/05/05 01:01:27;;;;;;;5.23;4.73;;;10.60;89.80;;;;;;5013034;28;20180;-66
2022/05/05 01:03:53;;;;;;;6.90;5.33;;;10.50;89.90;;;;;;4996410;28;20442;-66
2022/05/05 01:06:19;;;;;;;5.40;4.90;;;10.50;89.80;;;;;;5049139;28;20215;-66
2022/05/05 01:08:46;;;;;;;5.83;5.33;;;10.40;89.80;;;;;;5012749;28;20188;-66
2022/05/05 01:11:12;;;;;;;4.87;4.37;;;10.30;89.90;;;;;;5057427;28;20186;-66
2022/05/05 01:13:39;;;;;;;6.50;4.53;;;10.30;90.00;;;;;;5016632;28;20433;-68
2022/05/05 01:16:07;;;;;;;6.07;4.10;;;10.30;90.00;;;;;;5016003;28;20206;-67
2022/05/05 01:18:33;;;;;;;5.70;5.17;;;10.30;90.10;;;;;;5014950;28;20187;-67
2022/05/05 01:20:58;;;;;;;5.40;4.80;;;10.30;90.20;;;;;;5013089;28;20406;-67
2022/05/05 01:23:24;;;;;;;5.20;4.70;;;10.20;90.10;;;;;;5008968;28;20270;-66
2022/05/05 01:28:43;;;;;;;5.90;4.60;;;10.20;90.10;;;;;;5031399;28;20193;-66
2022/05/05 01:31:08;;;;;;;5.70;5.20;;;10.20;90.10;;;;;;5054572;28;20433;-67
2022/05/05 01:33:34;;;;;;;5.40;4.90;;;10.10;90.10;;;;;;5032150;28;20517;-67
2022/05/05 01:36:00;;;;;;;4.73;4.20;;;10.20;90.10;;;;;;5036754;28;20245;-68
2022/05/05 01:38:37;;;;;;;6.73;4.67;;;10.10;90.00;;;;;;5033064;28;20186;-67
2022/05/05 01:41:07;;;;;;;5.40;4.90;;;10.10;90.10;;;;;;5049850;28;20180;-68
2022/05/05 01:43:34;;;;;;;5.20;4.70;;;10.00;90.10;;;;;;5050447;28;20498;-67
2022/05/05 01:46:00;;;;;;;4.87;4.47;;;10.00;90.00;;;;;;5016829;28;20431;-66
2022/05/05 01:48:26;;;;;;;6.03;5.43;;;9.90;90.00;;;;;;5018704;28;20519;-66
2022/05/05 01:50:52;;;;;;;4.93;4.47;;;9.90;90.10;;;;;;5036389;28;20410;-66
2022/05/05 01:53:18;;;;;;;6.93;5.27;;;9.90;90.10;;;;;;5020053;28;20444;-66
2022/05/05 01:55:43;;;;;;;6.97;4.77;;;9.90;90.30;;;;;;5014587;28;20215;-66
2022/05/05 01:58:09;;;;;;;5.70;5.20;;;9.80;90.40;;;;;;5016222;28;20194;-66
2022/05/05 02:00:35;;;;;;;6.17;5.60;;;9.80;90.30;;;;;;5051757;28;20187;-66
2022/05/05 02:03:01;;;;;;;6.13;5.50;;;9.80;90.30;;;;;;5035579;28;20175;-66
2022/05/05 02:05:27;;;;;;;7.03;5.50;;;9.80;90.30;;;;;;5026900;28;20180;-68
2022/05/05 02:07:53;;;;;;;6.30;5.47;;;9.80;90.30;;;;;;5032285;28;20194;-67
2022/05/05 02:10:24;;;;;;;6.03;5.37;;;9.70;90.20;;;;;;5032566;28;20446;-67
2022/05/05 02:12:53;;;;;;;5.77;5.27;;;9.70;90.30;;;;;;5032761;28;20429;-67
2022/05/05 02:15:18;;;;;;;6.03;5.37;;;9.70;90.30;;;;;;5001567;28;20561;-67
2022/05/05 02:17:47;;;;;;;6.23;5.63;;;9.70;90.30;;;;;;5019322;28;20529;-66
2022/05/05 02:20:12;;;;;;;5.27;4.77;;;9.60;90.30;;;;;;5052933;28;20194;-66
2022/05/05 02:22:40;;;;;;;6.03;4.77;;;9.60;90.30;;;;;;5052746;28;20422;-66
2022/05/05 02:25:06;;;;;;;7.60;5.57;;;9.60;90.30;;;;;;5069258;28;20221;-66
2022/05/05 02:27:51;;;;;;;5.70;5.17;;;9.60;90.20;;;;;;5034250;28;20459;-66
2022/05/05 02:30:19;;;;;;;6.17;5.17;;;9.60;90.30;;;;;;5034659;28;20418;-67
2022/05/05 02:32:44;;;;;;;6.83;5.60;;;9.50;90.30;;;;;;5034736;28;20425;-66
2022/05/05 02:35:11;;;;;;;8.97;5.90;;;9.50;90.40;;;;;;5016394;28;20434;-67
2022/05/05 02:40:21;;;;;;;7.73;4.97;;;9.50;90.40;;;;;;5033662;28;20477;-66
2022/05/05 02:42:46;;;;;;;5.80;5.20;;;9.40;90.40;;;;;;5030832;28;20426;-67
2022/05/05 02:45:12;;;;;;;5.63;5.13;;;9.40;90.30;;;;;;5018479;28;20183;-67
2022/05/05 02:47:37;;;;;;;5.40;4.90;;;9.40;90.30;;;;;;5018345;28;20226;-66
2022/05/05 02:50:03;;;;;;;6.27;5.60;;;9.40;90.40;;;;;;5012392;28;20242;-66
2022/05/05 02:52:29;;;;;;;6.80;5.30;;;9.30;90.30;;;;;;5031603;28;20210;-68
2022/05/05 02:54:55;;;;;;;6.10;5.50;;;9.30;90.40;;;;;;5019446;28;20187;-68
2022/05/05 02:57:23;;;;;;;5.90;5.00;;;9.30;90.40;;;;;;5021309;28;20214;-67
2022/05/05 02:59:55;;;;;;;6.07;5.47;;;9.30;90.50;;;;;;5031467;28;20438;-68
2022/05/05 03:02:21;;;;;;;6.43;5.83;;;9.30;90.40;;;;;;5048405;28;20441;-67
2022/05/05 03:04:48;;;;;;;6.43;5.83;;;9.30;90.40;;;;;;5015063;28;20438;-67
2022/05/05 03:07:14;;;;;;;8.57;6.17;;;9.30;90.50;;;;;;5048108;28;20426;-64
2022/05/05 03:09:40;;;;;;;6.20;5.60;;;9.20;90.60;;;;;;5048355;28;20442;-64
2022/05/05 03:12:07;;;;;;;8.00;5.87;;;9.30;90.60;;;;;;5033242;28;20523;-64
2022/05/05 03:14:32;;;;;;;8.57;5.43;;;9.30;90.70;;;;;;5035519;28;20417;-64
2022/05/05 03:16:58;;;;;;;7.10;5.00;;;9.30;90.70;;;;;;5001541;28;20474;-64
2022/05/05 03:19:24;;;;;;;7.07;6.37;;;9.20;90.60;;;;;;5016096;28;20168;-64
2022/05/05 03:21:50;;;;;;;6.83;5.60;;;9.10;90.50;;;;;;5017857;28;20191;-64
2022/05/05 03:24:15;;;;;;;5.67;5.07;;;9.10;90.40;;;;;;5017930;28;20187;-64
2022/05/05 03:26:41;;;;;;;7.20;5.83;;;9.10;90.40;;;;;;5017687;28;20191;-64
2022/05/05 03:29:07;;;;;;;6.57;5.87;;;9.10;90.40;;;;;;5016898;28;20198;-64
2022/05/05 03:31:33;;;;;;;6.30;5.13;;;9.00;90.40;;;;;;5033638;28;20186;-64
2022/05/05 03:33:59;;;;;;;6.10;5.50;;;9.10;90.30;;;;;;5016790;28;20195;-64
2022/05/05 03:36:24;;;;;;;8.80;6.87;;;9.00;90.40;;;;;;5008826;28;20231;-64
2022/05/05 03:38:51;;;;;;;6.90;6.20;;;9.00;90.20;;;;;;5032416;28;20554;-64
2022/05/05 03:41:17;;;;;;;7.47;6.77;;;9.00;90.20;;;;;;5017099;28;21479;-66
2022/05/05 03:43:43;;;;;;;6.57;5.87;;;9.00;90.20;;;;;;5014311;28;20422;-63
2022/05/05 03:46:08;;;;;;;7.13;6.43;;;8.90;90.00;;;;;;5017142;28;20436;-64
2022/05/05 03:48:34;;;;;;;6.90;6.00;;;8.80;90.30;;;;;;5016782;28;20191;-65
2022/05/05 03:51:00;;;;;;;6.00;5.40;;;8.90;90.40;;;;;;5033430;28;20233;-65
2022/05/05 03:53:25;;;;;;;7.97;5.90;;;8.90;90.50;;;;;;5016586;28;20246;-65
2022/05/05 03:55:51;;;;;;;7.43;5.73;;;8.90;90.60;;;;;;5032468;28;20345;-65
2022/05/05 03:58:17;;;;;;;6.80;5.90;;;8.90;90.60;;;;;;5016164;28;20286;-65
2022/05/05 04:00:43;;;;;;;9.37;6.10;;;8.90;90.60;;;;;;5033995;28;20226;-65
2022/05/05 04:05:53;;;;;;;7.67;6.53;;;8.90;90.80;;;;;;5033065;28;20217;-65
2022/05/05 04:08:19;;;;;;;6.80;5.83;;;8.90;90.80;;;;;;5016050;28;20445;-65
2022/05/05 04:10:45;;;;;;;7.70;5.90;;;8.90;90.80;;;;;;5015165;28;20268;-65
2022/05/05 04:13:10;;;;;;;7.83;6.47;;;9.00;90.90;;;;;;5015897;28;20330;-65
2022/05/05 04:15:36;;;;;;;6.27;5.67;;;9.00;90.90;;;;;;5031188;28;20207;-65
2022/05/05 04:18:02;;;;;;;8.03;6.97;;;9.00;90.90;;;;;;5047320;28;20321;-66
2022/05/05 04:20:27;;;;;;;9.90;6.53;;;9.00;91.00;;;;;;5049717;28;20278;-68
2022/05/05 04:22:55;;;;;;;6.30;5.70;;;9.10;91.10;;;;;;5016104;28;20183;-67
2022/05/05 04:25:21;;;;;;;7.40;6.47;;;9.10;91.10;;;;;;5016388;28;20236;-67
2022/05/05 04:27:49;;;;;;;9.77;7.83;;;9.20;91.10;;;;;;5000836;28;20435;-68
2022/05/05 04:30:16;;;;;;;13.00;7.47;;;9.20;91.00;;;;;;5040648;28;20178;-67
2022/05/05 04:32:45;;;;;;;8.77;7.73;;;9.20;91.10;;;;;;5031502;28;20437;-66
2022/05/05 04:35:11;;;;;;;10.03;7.70;;;9.20;91.00;;;;;;5016141;28;20441;-66
2022/05/05 04:37:41;;;;;;;9.33;7.97;;;9.30;91.10;;;;;;5015028;28;20422;-68
2022/05/05 04:40:08;;;;;;;9.37;8.20;;;9.30;91.20;;;;;;5031540;28;20469;-67
2022/05/05 04:42:34;;;;;;;7.40;6.57;;;9.30;91.20;;;;;;5015008;28;20437;-67
2022/05/05 04:44:59;;;;;;;7.43;6.70;;;9.30;91.20;;;;;;5007980;28;20430;-67
2022/05/05 04:54:53;;;;;;;7.23;6.27;;;9.40;91.10;;;;;;5029286;28;20663;-70
2022/05/05 04:57:28;;;;;;;10.63;7.70;;;9.40;91.20;;;;;;5026421;28;20473;-71
2022/05/05 04:59:54;;;;;;;9.90;8.20;;;9.40;91.20;;;;;;5013665;28;20441;-70
2022/05/05 05:02:20;;;;;;;10.17;8.37;;;9.50;91.30;;;;;;5030382;28;20456;-70
2022/05/05 05:04:45;;;;;;;8.37;7.57;;;9.50;91.30;;;;;;5029387;28;20494;-68
2022/05/05 05:07:11;;;;;;;8.23;7.03;;;9.60;91.40;;;;;;5011006;28;20195;-68
2022/05/05 05:09:37;;;;;;;11.40;8.37;;;9.70;91.40;;;;;;5006803;28;20195;-67
2022/05/05 05:12:03;;;;;;;8.43;7.60;;;9.70;91.40;;;;;;5056977;28;20191;-67
2022/05/05 05:14:28;;;;;;;12.40;8.77;;;9.70;91.40;;;;;;5043251;28;20187;-67
2022/05/05 05:16:54;;;;;;;10.77;9.37;;;9.80;91.40;;;;;;5011950;28;20485;-68
2022/05/05 05:19:20;;;;;;;10.07;9.03;;;9.80;91.40;;;;;;5012213;28;20220;-68
2022/05/05 05:21:46;;;;;;;9.83;8.40;;;9.90;91.40;;;;;;5012932;28;20198;-68
2022/05/05 05:24:12;;;;;;;12.70;8.43;;;10.00;91.40;;;;;;5013422;28;20187;-68
2022/05/05 05:26:38;;;;;;;9.67;7.37;;;10.00;91.30;;;;;;5004420;28;20446;-68
2022/05/05 05:29:03;;;;;;;11.23;8.43;;;10.00;91.30;;;;;;5014133;28;20457;-68
2022/05/05 05:31:29;;;;;;;9.63;8.57;;;10.00;91.40;;;;;;5013712;28;20194;-67
2022/05/05 05:33:55;;;;;;;12.40;9.00;;;10.10;91.20;;;;;;5013072;28;20203;-66
2022/05/05 05:36:20;;;;;;;13.37;9.00;;;10.10;91.20;;;;;;5029517;28;20237;-67
2022/05/05 05:38:46;;;;;;;9.27;8.17;;;10.20;91.20;;;;;;5012895;28;20279;-68
2022/05/05 05:41:12;;;;;;;7.73;6.90;;;10.30;91.20;;;;;;5014489;28;20180;-68
2022/05/05 05:43:39;;;;;;;11.13;8.57;;;10.30;91.10;;;;;;5026264;28;20266;-68
2022/05/05 05:46:04;;;;;;;12.27;9.90;;;10.30;91.10;;;;;;5026066;28;20191;-68
2022/05/05 05:48:30;;;;;;;11.73;9.03;;;10.30;90.20;;;;;;5029696;28;20425;-68
2022/05/05 05:50:56;;;;;;;10.83;8.67;;;10.40;90.40;;;;;;5013499;28;20198;-68
2022/05/05 05:53:22;;;;;;;10.13;8.63;;;10.40;90.20;;;;;;5014381;28;20218;-68
2022/05/05 05:55:47;;;;;;;9.80;8.00;;;10.60;89.80;;;;;;5030930;28;20485;-68
2022/05/05 05:58:13;;;;;;;9.17;7.37;;;10.60;89.90;;;;;;5008338;28;20188;-68
2022/05/05 06:00:39;;;;;;;8.37;7.57;;;10.60;90.00;;;;;;5045568;28;20199;-68
2022/05/05 06:05:49;;;;;;;8.87;7.73;;;10.70;90.20;;;;;;5030197;28;20428;-68
2022/05/05 06:08:15;;;;;;;7.93;6.40;;;10.70;90.10;;;;;;5030727;28;20187;-68
2022/05/05 06:10:41;;;;;;;9.60;8.60;;;10.80;90.20;;;;;;5030421;28;20247;-68
2022/05/05 06:13:08;;;;;;;8.40;7.50;;;10.80;89.90;;;;;;5017235;28;20191;-68
2022/05/05 06:15:34;;;;;;;11.03;8.47;;;10.90;89.70;;;;;;5032885;28;20199;-68
2022/05/05 06:17:59;;;;;;;9.97;8.77;;;11.00;89.80;;;;;;5033757;28;20193;-68
2022/05/05 06:20:25;;;;;;;10.70;8.07;;;11.10;89.20;;;;;;5003569;28;20199;-68
2022/05/05 06:22:51;;;;;;;8.73;7.63;;;11.30;88.90;;;;;;5014887;28;20225;-68
2022/05/05 06:25:19;;;;;;;9.90;8.43;;;11.30;89.00;;;;;;5042930;28;20207;-68
2022/05/05 06:27:45;;;;;;;8.80;7.90;;;11.40;88.70;;;;;;5034345;28;20191;-68
2022/05/05 06:30:13;;;;;;;11.83;9.03;;;11.60;88.10;;;;;;5035209;28;20190;-69
2022/05/05 06:32:41;;;;;;;9.43;8.53;;;11.60;88.30;;;;;;5057523;28;20189;-68
2022/05/05 06:35:07;;;;;;;8.43;7.60;;;11.70;87.70;;;;;;5053818;28;20277;-68
2022/05/05 06:37:33;;;;;;;10.87;8.50;;;11.80;87.80;;;;;;5037271;28;20190;-68
2022/05/05 06:40:00;;;;;;;8.63;7.47;;;11.80;87.90;;;;;;5041437;28;20246;-68
2022/05/05 06:42:27;;;;;;;9.60;7.40;;;11.90;88.10;;;;;;5030561;28;20187;-67
2022/05/05 06:44:52;;;;;;;9.87;7.53;;;11.90;88.40;;;;;;5050290;28;20221;-67
2022/05/05 06:47:18;;;;;;;9.07;8.17;;;11.90;88.20;;;;;;5016471;28;20183;-67
2022/05/05 06:49:44;;;;;;;8.37;7.53;;;12.00;88.20;;;;;;5016123;28;20191;-67
2022/05/05 06:52:10;;;;;;;8.53;7.63;;;12.00;87.30;;;;;;5017500;28;20187;-68
2022/05/05 06:54:35;;;;;;;10.93;8.20;;;12.10;87.60;;;;;;5017710;28;20257;-69
2022/05/05 06:57:01;;;;;;;8.17;7.37;;;12.20;87.20;;;;;;5017664;28;20223;-69
2022/05/05 06:59:27;;;;;;;8.50;7.60;;;12.20;87.10;;;;;;5015746;28;20245;-69
2022/05/05 07:01:53;;;;;;;11.03;8.67;;;12.20;86.90;;;;;;5016661;28;20219;-69
2022/05/05 07:07:04;;;;;;;8.47;7.23;;;12.50;84.60;;;;;;5019241;28;20301;-69
2022/05/05 07:12:15;;;;;;;8.90;8.00;;;12.60;84.40;;;;;;5044493;28;20209;-69
2022/05/05 07:14:43;;;;;;;7.43;6.57;;;12.70;83.70;;;;;;5032456;28;20183;-69
2022/05/05 07:17:09;;;;;;;9.43;7.67;;;12.80;83.10;;;;;;5015406;28;20211;-69
2022/05/05 07:19:34;;;;;;;7.73;7.03;;;12.80;83.70;;;;;;5015541;28;20194;-69
2022/05/05 07:22:00;;;;;;;7.97;6.73;;;12.80;83.00;;;;;;5014733;28;20282;-69
2022/05/05 07:24:26;;;;;;;6.97;6.27;;;12.90;83.30;;;;;;5012594;28;20188;-69
2022/05/05 07:26:51;;;;;;;9.13;6.90;;;12.90;83.70;;;;;;5012103;28;20188;-69
2022/05/05 07:29:17;;;;;;;12.27;7.00;;;13.00;82.40;;;;;;5026995;28;20210;-69
2022/05/05 07:31:43;;;;;;;10.13;7.43;;;13.10;81.70;;;;;;5012237;28;20203;-69
2022/05/05 07:34:08;;;;;;;7.00;5.90;;;13.30;80.90;;;;;;5013288;28;20218;-69
2022/05/05 07:36:34;;;;;;;8.00;6.07;;;13.30;81.40;;;;;;5029767;28;20224;-69
2022/05/05 07:39:00;;;;;;;7.03;6.27;;;13.30;81.60;;;;;;5030629;28;20330;-69
2022/05/05 07:41:25;;;;;;;6.83;6.23;;;13.50;80.60;;;;;;5015760;28;20198;-69
2022/05/05 07:43:51;;;;;;;7.57;6.17;;;13.50;81.10;;;;;;5015449;28;20258;-69
2022/05/05 07:46:18;;;;;;;6.77;5.57;;;13.60;79.80;;;;;;4995750;28;20203;-69
2022/05/05 07:48:44;;;;;;;6.77;6.17;;;13.70;80.00;;;;;;5027663;28;20218;-69
2022/05/05 07:51:10;;;;;;;9.03;6.43;;;13.80;78.40;;;;;;5027878;28;20190;-69
2022/05/05 07:53:36;;;;;;;6.80;6.13;;;13.90;78.00;;;;;;5027853;28;20195;-69
2022/05/05 07:56:01;;;;;;;6.53;5.93;;;14.00;77.40;;;;;;5028466;28;20277;-69
2022/05/05 07:58:27;;;;;;;7.43;5.67;;;14.10;76.80;;;;;;5016338;28;20234;-69
2022/05/05 08:00:53;;;;;;;6.50;5.60;;;14.20;76.70;;;;;;5013225;28;20183;-69
2022/05/05 08:03:19;;;;;;;5.60;5.03;;;14.30;77.10;;;;;;5021915;28;20282;-69
2022/05/05 08:05:45;;;;;;;5.80;5.30;;;14.30;76.50;;;;;;4998381;28;20200;-69
2022/05/05 08:08:10;;;;;;;6.63;5.33;;;14.50;76.30;;;;;;5014660;28;20199;-69
2022/05/05 08:10:36;;;;;;;5.43;4.93;;;14.80;75.50;;;;;;5015811;28;20194;-69
2022/05/05 08:13:04;;;;;;;5.33;4.83;;;14.90;73.50;;;;;;5031076;28;20187;-69
2022/05/05 08:15:30;;;;;;;5.83;5.33;;;14.90;73.10;;;;;;5063808;28;20290;-69
2022/05/05 08:17:55;;;;;;;4.73;4.33;;;14.90;74.00;;;;;;5015832;28;20223;-69
2022/05/05 08:20:21;;;;;;;5.13;4.63;;;15.00;74.00;;;;;;5015308;28;20203;-69
2022/05/05 08:22:47;;;;;;;5.13;4.63;;;15.00;73.70;;;;;;5015721;28;20201;-69
2022/05/05 08:30:41;;;;;;;6.43;3.73;;;15.20;71.00;;;;;;5012840;28;20203;-69
2022/05/05 08:33:07;;;;;;;5.17;4.07;;;15.30;70.80;;;;;;5041141;28;20190;-69
2022/05/05 08:35:33;;;;;;;3.93;3.63;;;15.30;70.70;;;;;;5009420;28;20242;-69
2022/05/05 08:37:58;;;;;;;5.07;4.27;;;15.30;70.10;;;;;;4994756;28;20195;-69
2022/05/05 08:40:26;;;;;;;4.90;4.40;;;15.50;69.90;;;;;;5012958;28;20246;-69
2022/05/05 08:42:53;;;;;;;4.37;3.97;;;15.70;70.30;;;;;;5015176;28;20188;-69
2022/05/05 08:45:19;;;;;;;4.17;3.83;;;15.80;68.70;;;;;;5013963;28;20255;-69
2022/05/05 08:47:47;;;;;;;4.97;3.77;;;15.80;68.50;;;;;;5028278;28;20278;-69
2022/05/05 08:50:12;;;;;;;4.17;3.77;;;16.00;66.20;;;;;;5011925;28;20182;-69
2022/05/05 08:52:48;;;;;;;5.47;3.90;;;16.00;67.00;;;;;;5023208;28;20195;-69
2022/05/05 08:55:20;;;;;;;5.37;4.10;;;16.10;68.90;;;;;;5031086;28;20179;-69
2022/05/05 08:57:46;;;;;;;4.20;3.70;;;16.10;70.00;;;;;;5010782;28;20184;-69
2022/05/05 09:00:14;;;;;;;4.03;3.60;;;16.20;69.30;;;;;;5009856;28;20188;-69
2022/05/05 09:02:40;;;;;;;3.77;3.47;;;16.20;70.00;;;;;;5011782;28;20296;-69
2022/05/05 09:05:07;;;;;;;4.10;3.70;;;16.30;69.50;;;;;;5030606;28;20189;-69
2022/05/05 09:07:52;;;;;;;4.57;3.40;;;16.30;68.10;;;;;;5014288;28;20183;-69
2022/05/05 09:10:21;;;;;;;4.30;3.90;;;16.50;68.50;;;;;;5013789;28;20230;-69
2022/05/05 09:13:01;;;;;;;3.93;3.53;;;16.60;67.60;;;;;;5012589;28;20182;-69
2022/05/05 09:15:35;;;;;;;4.87;4.40;;;16.80;66.30;;;;;;5027092;28;20183;-69
2022/05/05 09:18:14;;;;;;;3.50;3.20;;;17.10;64.10;;;;;;5012050;28;20184;-69
2022/05/05 09:20:40;;;;;;;3.60;3.10;;;17.40;63.20;;;;;;5029874;28;20210;-69
2022/05/05 09:23:06;;;;;;;4.63;3.83;;;17.60;63.50;;;;;;5027744;28;20183;-69
2022/05/05 09:25:45;;;;;;;3.43;3.13;;;17.80;60.30;;;;;;5027599;28;20184;-69
2022/05/05 09:28:18;;;;;;;4.53;3.80;;;17.90;62.50;;;;;;5014951;28;20201;-69
2022/05/05 09:30:49;;;;;;;3.90;3.60;;;18.10;59.10;;;;;;4994707;28;20286;-69
2022/05/05 09:33:34;;;;;;;6.53;3.90;;;18.20;59.60;;;;;;5004399;28;20219;-69
2022/05/05 09:36:04;;;;;;;3.80;3.50;;;18.30;61.30;;;;;;5030999;28;20218;-69
2022/05/05 09:38:53;;;;;;;3.93;3.60;;;18.30;62.30;;;;;;5030550;28;20190;-69
2022/05/05 09:41:20;;;;;;;4.37;3.97;;;18.40;58.90;;;;;;5031375;28;20187;-69
2022/05/05 09:43:46;;;;;;;4.30;3.90;;;18.40;60.10;;;;;;5004514;28;20195;-69
2022/05/05 09:46:26;;;;;;;4.20;3.80;;;18.60;58.00;;;;;;5009095;28;20202;-69
2022/05/05 09:48:53;;;;;;;4.20;3.50;;;18.50;55.70;;;;;;5031912;28;20195;-69
2022/05/05 09:51:19;;;;;;;2.97;2.77;;;18.30;58.40;;;;;;5030032;28;20188;-69
2022/05/05 09:59:29;;;;;;;5.20;3.80;;;18.80;58.80;;;;;;5031608;28;20197;-69
2022/05/05 10:02:04;;;;;;;4.90;3.70;;;19.00;59.30;;;;;;5029379;28;20187;-69
2022/05/05 10:04:35;;;;;;;3.70;3.40;;;19.10;58.90;;;;;;5015024;28;20183;-69
2022/05/05 10:07:03;;;;;;;3.60;3.30;;;19.20;56.70;;;;;;5042747;28;20198;-69
2022/05/05 10:09:29;;;;;;;3.93;3.57;;;19.20;55.90;;;;;;5034229;28;20231;-68
2022/05/05 10:11:55;;;;;;;3.70;3.40;;;19.50;54.30;;;;;;5017363;28;20187;-68
2022/05/05 10:14:22;;;;;;;3.50;3.13;;;19.70;55.00;;;;;;5004817;28;20199;-68
2022/05/05 10:16:49;;;;;;;3.60;3.20;;;19.80;56.40;;;;;;5017270;28;20204;-68
2022/05/05 10:19:15;;;;;;;4.40;4.00;;;19.80;54.70;;;;;;5030487;28;20286;-69
2022/05/05 10:22:03;;;;;;;4.17;3.80;;;20.00;54.50;;;;;;5013422;28;20283;-68
2022/05/05 10:24:30;;;;;;;3.67;3.20;;;20.20;54.80;;;;;;5015433;28;20184;-68
2022/05/05 10:27:00;;;;;;;3.30;3.00;;;20.20;52.70;;;;;;5017230;28;20191;-68
2022/05/05 10:29:33;;;;;;;4.53;3.60;;;20.20;53.60;;;;;;5067884;28;20198;-69
2022/05/05 10:32:06;;;;;;;3.87;3.57;;;20.30;51.50;;;;;;5036346;28;20226;-68
2022/05/05 10:34:32;;;;;;;3.80;3.50;;;20.60;50.60;;;;;;5054222;28;20187;-69
2022/05/05 10:37:00;;;;;;;3.30;3.00;;;20.70;50.40;;;;;;5054090;28;20237;-68
2022/05/05 10:39:45;;;;;;;4.97;3.90;;;20.70;49.70;;;;;;5054515;28;20233;-68
2022/05/05 10:42:18;;;;;;;3.33;3.03;;;20.70;51.50;;;;;;5053966;28;20221;-68
2022/05/05 10:45:10;;;;;;;3.93;3.50;;;20.70;51.40;;;;;;5016631;28;20219;-68
2022/05/05 10:48:00;;;;;;;4.47;3.20;;;20.80;52.70;;;;;;5013192;28;20191;-68
2022/05/05 10:50:42;;;;;;;3.73;3.23;;;20.90;54.00;;;;;;5011689;28;20215;-68
2022/05/05 10:53:24;;;;;;;3.47;3.17;;;21.10;53.00;;;;;;5014954;28;20207;-68
2022/05/05 10:55:50;;;;;;;3.20;2.90;;;21.30;53.50;;;;;;5017137;28;20202;-68
2022/05/05 10:58:53;;;;;;;4.60;3.70;;;21.40;51.30;;;;;;5012660;28;20219;-68
2022/05/05 11:01:19;;;;;;;4.17;3.47;;;21.70;47.20;;;;;;5028350;28;20236;-68
2022/05/05 11:04:15;;;;;;;3.67;3.20;;;21.80;45.60;;;;;;5006104;28;20192;-68
2022/05/05 11:06:42;;;;;;;4.13;3.37;;;21.90;44.60;;;;;;5045970;28;20190;-68
2022/05/05 11:09:08;;;;;;;3.83;3.53;;;22.00;46.70;;;;;;5017272;28;20283;-69
2022/05/05 11:11:40;;;;;;;4.30;4.00;;;22.20;46.70;;;;;;5031738;28;20202;-69
2022/05/05 11:22:48;;;;;;;4.80;3.00;;;22.50;41.70;;;;;;5033652;28;20214;-69
2022/05/05 11:25:15;;;;;;;3.67;3.37;;;22.60;43.80;;;;;;5030436;28;20179;-68
2022/05/05 11:27:41;;;;;;;4.10;3.80;;;22.70;43.50;;;;;;5018001;28;20254;-68
2022/05/05 11:30:07;;;;;;;4.00;3.70;;;22.70;45.60;;;;;;5028543;28;20239;-68
2022/05/05 11:32:34;;;;;;;4.77;4.20;;;22.80;40.00;;;;;;5034164;28;20183;-69
2022/05/05 11:35:00;;;;;;;5.17;3.50;;;23.00;39.00;;;;;;5012165;28;20207;-68
2022/05/05 11:37:27;;;;;;;5.20;3.30;;;23.20;40.10;;;;;;5014702;28;20306;-68
2022/05/05 11:39:54;;;;;;;3.70;3.40;;;23.30;38.20;;;;;;5013850;28;20306;-68
2022/05/05 11:42:19;;;;;;;4.10;3.13;;;23.70;38.40;;;;;;5046911;28;20239;-68
2022/05/05 11:44:47;;;;;;;3.67;3.20;;;24.10;38.80;;;;;;4997363;28;20183;-68
2022/05/05 11:47:18;;;;;;;3.80;3.00;;;24.20;39.20;;;;;;5015410;28;20179;-69
2022/05/05 11:49:46;;;;;;;3.57;2.77;;;24.40;35.90;;;;;;5015547;28;20180;-70
2022/05/05 11:52:25;;;;;;;4.83;2.70;;;24.50;35.50;;;;;;5015240;28;20183;-66
2022/05/05 11:54:53;;;;;;;4.13;3.70;;;24.80;37.30;;;;;;5057249;28;20226;-67
2022/05/05 11:57:36;;;;;;;3.97;2.97;;;25.00;34.30;;;;;;5017580;28;20249;-67
2022/05/05 12:02:48;;;;;;;3.40;3.10;;;25.50;35.70;;;;;;5033062;28;20351;-70
2022/05/05 12:05:14;;;;;;;6.30;3.00;;;26.50;34.30;;;;;;5016342;28;20183;-71
2022/05/05 12:07:44;;;;;;;4.20;2.90;;;27.80;30.10;;;;;;5032355;28;20210;-70
2022/05/05 12:10:13;;;;;;;2.70;2.40;;;28.70;31.00;;;;;;5017254;28;20195;-70
2022/05/05 12:12:43;;;;;;;4.33;2.70;;;29.60;28.40;;;;;;5031853;28;20182;-70
2022/05/05 12:15:10;;;;;;;3.20;2.93;;;30.50;27.80;;;;;;5015709;28;20202;-69
2022/05/05 12:17:47;;;;;;;2.87;2.67;;;31.50;27.30;;;;;;5015893;28;20261;-69
2022/05/05 12:20:15;;;;;;;2.73;2.53;;;31.40;27.80;;;;;;5033503;28;20178;-68
2022/05/05 12:22:52;;;;;;;5.10;2.73;;;30.50;26.10;;;;;;5033907;28;20183;-68
2022/05/05 12:25:18;;;;;;;3.37;2.33;;;30.70;28.10;;;;;;5013845;28;20198;-68
2022/05/05 12:27:59;;;;;;;4.63;3.23;;;31.70;28.30;;;;;;5047027;28;20179;-68
2022/05/05 12:30:42;;;;;;;3.33;2.73;;;32.90;26.60;;;;;;5064205;28;20178;-67
2022/05/05 12:33:12;;;;;;;3.40;2.93;;;33.10;25.10;;;;;;5026314;28;20194;-67
2022/05/05 12:35:43;;;;;;;2.93;2.73;;;32.70;25.30;;;;;;5036734;28;20179;-66
2022/05/05 12:38:13;;;;;;;4.93;2.67;;;32.20;24.40;;;;;;5024169;28;20199;-66
2022/05/05 12:40:43;;;;;;;4.37;2.77;;;30.90;27.10;;;;;;5032542;28;20252;-66
2022/05/05 12:43:14;;;;;;;2.80;2.50;;;29.90;30.60;;;;;;5023801;28;20444;-66
2022/05/05 12:45:40;;;;;;;3.73;2.60;;;30.00;30.40;;;;;;5029673;28;20183;-66
2022/05/05 12:48:09;;;;;;;3.13;2.90;;;29.60;30.20;;;;;;5015499;28;20260;-66
2022/05/05 12:50:42;;;;;;;3.13;2.83;;;29.20;28.30;;;;;;5031837;28;20205;-66
2022/05/05 13:01:25;;;;;;;3.40;3.10;;;26.50;33.60;;;;;;5028352;28;20209;-67
2022/05/05 13:03:55;;;;;;;3.37;3.10;;;26.20;34.00;;;;;;5004244;28;20197;-67
2022/05/05 13:06:25;;;;;;;3.93;2.83;;;26.00;32.70;;;;;;5053304;28;20187;-67
2022/05/05 13:08:52;;;;;;;2.37;2.17;;;27.30;31.30;;;;;;5021603;28;20188;-67
2022/05/05 13:11:18;;;;;;;3.73;3.07;;;30.10;29.70;;;;;;5012969;28;20195;-67
2022/05/05 13:13:48;;;;;;;3.50;3.20;;;32.90;25.90;;;;;;5050826;28;20263;-67
2022/05/05 13:16:15;;;;;;;4.20;2.60;;;32.50;24.30;;;;;;5014243;28;20226;-66
2022/05/05 13:18:41;;;;;;;3.30;2.23;;;32.70;26.00;;;;;;5046539;28;20164;-67
2022/05/05 13:21:07;;;;;;;3.23;2.33;;;32.20;26.70;;;;;;5016484;28;20176;-68
2022/05/05 13:23:33;;;;;;;3.33;2.50;;;30.80;28.90;;;;;;5050005;28;20203;-67
2022/05/05 13:26:00;;;;;;;2.67;2.30;;;29.70;29.50;;;;;;5019168;28;20191;-67
2022/05/05 13:28:25;;;;;;;2.87;2.57;;;29.00;31.70;;;;;;5022597;28;20199;-67
2022/05/05 13:30:51;;;;;;;2.73;2.53;;;29.50;31.00;;;;;;5000743;28;20218;-68
2022/05/05 13:33:17;;;;;;;5.70;2.50;;;30.40;29.10;;;;;;5012267;28;20193;-67
2022/05/05 13:35:43;;;;;;;2.60;2.40;;;30.80;28.80;;;;;;5016981;28;20188;-67
2022/05/05 13:38:09;;;;;;;2.30;2.20;;;30.80;28.10;;;;;;5035447;28;20187;-67
2022/05/05 13:40:35;;;;;;;3.77;2.50;;;30.50;28.50;;;;;;5037365;28;20273;-67
2022/05/05 13:43:01;;;;;;;3.57;2.70;;;29.20;30.40;;;;;;5016243;28;20184;-67
2022/05/05 13:45:27;;;;;;;3.10;2.70;;;28.30;31.80;;;;;;5016749;28;20176;-67
2022/05/05 13:47:53;;;;;;;2.63;2.40;;;27.70;33.10;;;;;;5016581;28;20195;-68